Dalhart Municipal Airport
KDHT : rendu visible

Aérodrome :











RETROUVEZ-NOUS SUR...

 
LOGIN :

S'inscrire | Disclaimer

   EN    FR    IT 

 









Légende :    VFR   VFR Marginal   IFR   IFR Intensif   IFR Très Intensif
Visi : 
Plafond : 
>= 8 km
>= 3000ft
5 à 8 km
1000 à 3000 ft
1500m à 5 km
500 à 1000 ft
800 à 1500m
200 à 500 ft
< 800m
< 200 ft
Symboles :   Orages  Brouillard  Fortes neiges  Fortes précipitations  Vent > 20 kt






- Altitude de l'aérodrome : 3991 ft


KDHT - Dalhart Municipal

DERNIER METAR :
  • 191453Z AUTO 17009KT 10SM CLR 08/M01 A2990 RMK AO2 SLP106 T00831011 56010

METARs EXPIRÉS :
  • 191353Z AUTO 18007KT 10SM CLR M01/M04 A2991 RMK AO2 SLP123 T10061039
  • 191253Z AUTO 00000KT 10SM CLR 01/M04 A2992 RMK AO2 SLP121 T00061044

TAF KDHT
Valide du 19 à 12h jusqu'au 20 à 12h UTC


191120Z 1912/2012 20006KT P6SM SKC
FM191700 20013G23KT P6SM SKC
FM200000 17008KT P6SM SCT250



MET'MAP, la Météo Aéronautique d'un coup d'oeil ! - Copyright ORBIFLY Décembre 2007 - Disclaimer

ORBIFLY MET'MAP TEAM :

Programmation & Développement : Alexandra Zaïnal
Conception & Développement : Baudouin d'Aumeries
Co-Programmation & Développement : Marc-Olivier Méhu
Soutien technique & logistique : Manuel Goepfert

Contact : metmap@orbifly.com




SOURCES & CREDITS :

   NOAA       Earth
Advisory